sensor_id;sensor_type;location;lat;lon;timestamp;P1;durP1;ratioP1;P2;durP2;ratioP2
23743;SDS011;12052;53.478;10.182;2023-06-10T00:01:23;4.28;;;2.20;;
23743;SDS011;12052;53.478;10.182;2023-06-10T00:03:49;6.32;;;2.13;;
23743;SDS011;12052;53.478;10.182;2023-06-10T00:06:16;3.83;;;2.22;;
23743;SDS011;12052;53.478;10.182;2023-06-10T00:08:42;4.05;;;1.88;;
23743;SDS011;12052;53.478;10.182;2023-06-10T00:11:08;5.75;;;2.10;;
23743;SDS011;12052;53.478;10.182;2023-06-10T00:13:33;5.57;;;2.15;;
23743;SDS011;12052;53.478;10.182;2023-06-10T00:15:59;3.42;;;1.90;;
23743;SDS011;12052;53.478;10.182;2023-06-10T00:18:24;3.00;;;1.80;;
23743;SDS011;12052;53.478;10.182;2023-06-10T00:20:51;7.97;;;1.90;;
23743;SDS011;12052;53.478;10.182;2023-06-10T00:23:20;4.38;;;2.05;;
23743;SDS011;12052;53.478;10.182;2023-06-10T00:25:46;4.05;;;1.70;;
23743;SDS011;12052;53.478;10.182;2023-06-10T00:28:11;5.30;;;2.03;;
23743;SDS011;12052;53.478;10.182;2023-06-10T00:30:38;3.95;;;2.10;;
23743;SDS011;12052;53.478;10.182;2023-06-10T00:33:04;2.40;;;1.73;;
23743;SDS011;12052;53.478;10.182;2023-06-10T00:35:29;5.28;;;1.80;;
23743;SDS011;12052;53.478;10.182;2023-06-10T00:37:55;3.08;;;1.58;;
23743;SDS011;12052;53.478;10.182;2023-06-10T00:40:20;4.22;;;2.25;;
23743;SDS011;12052;53.478;10.182;2023-06-10T00:42:46;5.70;;;2.08;;
23743;SDS011;12052;53.478;10.182;2023-06-10T00:45:11;4.15;;;2.05;;
23743;SDS011;12052;53.478;10.182;2023-06-10T00:47:37;7.65;;;2.05;;
23743;SDS011;12052;53.478;10.182;2023-06-10T00:50:04;4.53;;;2.22;;
23743;SDS011;12052;53.478;10.182;2023-06-10T00:52:30;2.63;;;1.75;;
23743;SDS011;12052;53.478;10.182;2023-06-10T00:54:56;2.75;;;2.08;;
23743;SDS011;12052;53.478;10.182;2023-06-10T00:57:21;4.95;;;1.50;;
23743;SDS011;12052;53.478;10.182;2023-06-10T00:59:48;3.78;;;1.92;;
23743;SDS011;12052;53.478;10.182;2023-06-10T01:02:14;2.75;;;1.77;;
23743;SDS011;12052;53.478;10.182;2023-06-10T01:04:40;5.18;;;1.90;;
23743;SDS011;12052;53.478;10.182;2023-06-10T01:07:14;3.58;;;2.00;;
23743;SDS011;12052;53.478;10.182;2023-06-10T01:10:02;3.47;;;1.60;;
23743;SDS011;12052;53.478;10.182;2023-06-10T01:12:58;2.90;;;1.80;;
23743;SDS011;12052;53.478;10.182;2023-06-10T01:15:27;6.22;;;2.05;;
23743;SDS011;12052;53.478;10.182;2023-06-10T01:18:03;2.92;;;1.67;;
23743;SDS011;12052;53.478;10.182;2023-06-10T01:20:33;4.63;;;1.67;;
23743;SDS011;12052;53.478;10.182;2023-06-10T01:23:02;6.53;;;2.08;;
23743;SDS011;12052;53.478;10.182;2023-06-10T01:25:28;6.07;;;2.03;;
23743;SDS011;12052;53.478;10.182;2023-06-10T01:30:30;3.17;;;1.73;;
23743;SDS011;12052;53.478;10.182;2023-06-10T01:33:02;4.43;;;1.65;;
23743;SDS011;12052;53.478;10.182;2023-06-10T01:35:31;4.15;;;1.67;;
23743;SDS011;12052;53.478;10.182;2023-06-10T01:37:58;3.67;;;1.58;;
23743;SDS011;12052;53.478;10.182;2023-06-10T01:40:26;2.30;;;1.40;;
23743;SDS011;12052;53.478;10.182;2023-06-10T01:42:52;5.57;;;2.40;;
23743;SDS011;12052;53.478;10.182;2023-06-10T01:45:18;3.13;;;1.73;;
23743;SDS011;12052;53.478;10.182;2023-06-10T01:47:44;4.90;;;1.63;;
23743;SDS011;12052;53.478;10.182;2023-06-10T01:50:10;7.18;;;1.83;;
23743;SDS011;12052;53.478;10.182;2023-06-10T01:52:35;2.63;;;1.95;;
23743;SDS011;12052;53.478;10.182;2023-06-10T01:55:02;4.55;;;2.08;;
23743;SDS011;12052;53.478;10.182;2023-06-10T01:57:28;4.30;;;1.80;;
23743;SDS011;12052;53.478;10.182;2023-06-10T01:59:53;6.00;;;2.08;;
23743;SDS011;12052;53.478;10.182;2023-06-10T02:02:19;3.55;;;1.77;;
23743;SDS011;12052;53.478;10.182;2023-06-10T02:04:46;4.60;;;2.30;;
23743;SDS011;12052;53.478;10.182;2023-06-10T02:07:12;3.20;;;1.42;;
23743;SDS011;12052;53.478;10.182;2023-06-10T02:09:38;3.78;;;1.83;;
23743;SDS011;12052;53.478;10.182;2023-06-10T02:12:04;3.35;;;1.40;;
23743;SDS011;12052;53.478;10.182;2023-06-10T02:14:31;2.72;;;1.55;;
23743;SDS011;12052;53.478;10.182;2023-06-10T02:16:57;4.20;;;1.65;;
23743;SDS011;12052;53.478;10.182;2023-06-10T02:19:23;4.38;;;1.90;;
23743;SDS011;12052;53.478;10.182;2023-06-10T02:21:52;4.15;;;1.83;;
23743;SDS011;12052;53.478;10.182;2023-06-10T02:24:18;3.97;;;1.65;;
23743;SDS011;12052;53.478;10.182;2023-06-10T02:26:43;5.25;;;1.70;;
23743;SDS011;12052;53.478;10.182;2023-06-10T02:29:10;2.55;;;1.15;;
23743;SDS011;12052;53.478;10.182;2023-06-10T02:31:35;6.03;;;1.63;;
23743;SDS011;12052;53.478;10.182;2023-06-10T02:34:02;5.10;;;1.85;;
23743;SDS011;12052;53.478;10.182;2023-06-10T02:36:28;3.20;;;1.48;;
23743;SDS011;12052;53.478;10.182;2023-06-10T02:38:54;3.17;;;1.65;;
23743;SDS011;12052;53.478;10.182;2023-06-10T02:41:20;2.03;;;1.17;;
23743;SDS011;12052;53.478;10.182;2023-06-10T02:43:46;2.42;;;1.38;;
23743;SDS011;12052;53.478;10.182;2023-06-10T02:46:12;3.92;;;1.88;;
23743;SDS011;12052;53.478;10.182;2023-06-10T02:48:44;2.42;;;1.40;;
23743;SDS011;12052;53.478;10.182;2023-06-10T02:51:11;2.17;;;1.35;;
23743;SDS011;12052;53.478;10.182;2023-06-10T02:53:36;3.17;;;1.55;;
23743;SDS011;12052;53.478;10.182;2023-06-10T02:56:02;2.72;;;1.45;;
23743;SDS011;12052;53.478;10.182;2023-06-10T02:58:28;3.55;;;1.42;;
23743;SDS011;12052;53.478;10.182;2023-06-10T03:00:53;3.95;;;1.20;;
23743;SDS011;12052;53.478;10.182;2023-06-10T03:03:19;4.60;;;1.30;;
23743;SDS011;12052;53.478;10.182;2023-06-10T03:05:47;4.10;;;1.80;;
23743;SDS011;12052;53.478;10.182;2023-06-10T03:08:13;1.83;;;1.30;;
23743;SDS011;12052;53.478;10.182;2023-06-10T03:10:38;2.35;;;1.50;;
23743;SDS011;12052;53.478;10.182;2023-06-10T03:13:04;1.33;;;1.05;;
23743;SDS011;12052;53.478;10.182;2023-06-10T03:15:30;4.10;;;1.58;;
23743;SDS011;12052;53.478;10.182;2023-06-10T03:17:57;2.42;;;1.23;;
23743;SDS011;12052;53.478;10.182;2023-06-10T03:20:26;1.70;;;1.20;;
23743;SDS011;12052;53.478;10.182;2023-06-10T03:22:52;1.80;;;1.25;;
23743;SDS011;12052;53.478;10.182;2023-06-10T03:25:18;2.47;;;1.10;;
23743;SDS011;12052;53.478;10.182;2023-06-10T03:27:45;2.38;;;1.45;;
23743;SDS011;12052;53.478;10.182;2023-06-10T03:30:12;4.05;;;1.52;;
23743;SDS011;12052;53.478;10.182;2023-06-10T03:32:38;4.13;;;1.20;;
23743;SDS011;12052;53.478;10.182;2023-06-10T03:35:06;1.85;;;1.10;;
23743;SDS011;12052;53.478;10.182;2023-06-10T03:37:32;5.75;;;1.77;;
23743;SDS011;12052;53.478;10.182;2023-06-10T03:39:57;1.90;;;0.98;;
23743;SDS011;12052;53.478;10.182;2023-06-10T03:42:23;2.35;;;1.38;;
23743;SDS011;12052;53.478;10.182;2023-06-10T03:44:48;4.30;;;1.38;;
23743;SDS011;12052;53.478;10.182;2023-06-10T03:47:14;3.70;;;1.80;;
23743;SDS011;12052;53.478;10.182;2023-06-10T03:49:39;4.80;;;1.17;;
23743;SDS011;12052;53.478;10.182;2023-06-10T03:52:05;3.50;;;1.40;;
23743;SDS011;12052;53.478;10.182;2023-06-10T03:54:32;3.85;;;1.23;;
23743;SDS011;12052;53.478;10.182;2023-06-10T03:56:59;5.00;;;1.10;;
23743;SDS011;12052;53.478;10.182;2023-06-10T03:59:25;3.20;;;1.33;;
23743;SDS011;12052;53.478;10.182;2023-06-10T04:01:51;3.55;;;1.25;;
23743;SDS011;12052;53.478;10.182;2023-06-10T04:04:17;6.35;;;1.58;;
23743;SDS011;12052;53.478;10.182;2023-06-10T04:06:42;1.73;;;1.02;;
23743;SDS011;12052;53.478;10.182;2023-06-10T04:09:12;3.40;;;1.35;;
23743;SDS011;12052;53.478;10.182;2023-06-10T04:11:37;1.80;;;1.10;;
23743;SDS011;12052;53.478;10.182;2023-06-10T04:14:03;3.15;;;1.17;;
23743;SDS011;12052;53.478;10.182;2023-06-10T04:16:29;4.10;;;1.40;;
23743;SDS011;12052;53.478;10.182;2023-06-10T04:18:54;1.63;;;1.05;;
23743;SDS011;12052;53.478;10.182;2023-06-10T04:21:20;4.53;;;1.63;;
23743;SDS011;12052;53.478;10.182;2023-06-10T04:23:46;3.50;;;1.20;;
23743;SDS011;12052;53.478;10.182;2023-06-10T04:26:12;3.97;;;1.45;;
23743;SDS011;12052;53.478;10.182;2023-06-10T04:28:38;1.45;;;1.17;;
23743;SDS011;12052;53.478;10.182;2023-06-10T04:31:03;1.83;;;1.08;;
23743;SDS011;12052;53.478;10.182;2023-06-10T04:33:29;2.15;;;1.17;;
23743;SDS011;12052;53.478;10.182;2023-06-10T04:35:55;3.03;;;1.50;;
23743;SDS011;12052;53.478;10.182;2023-06-10T04:38:21;3.15;;;1.20;;
23743;SDS011;12052;53.478;10.182;2023-06-10T04:40:46;2.17;;;1.08;;
23743;SDS011;12052;53.478;10.182;2023-06-10T04:43:12;1.30;;;0.95;;
23743;SDS011;12052;53.478;10.182;2023-06-10T04:45:38;2.17;;;1.25;;
23743;SDS011;12052;53.478;10.182;2023-06-10T04:48:04;3.65;;;1.10;;
23743;SDS011;12052;53.478;10.182;2023-06-10T04:50:30;3.50;;;0.82;;
23743;SDS011;12052;53.478;10.182;2023-06-10T04:52:58;3.72;;;1.25;;
23743;SDS011;12052;53.478;10.182;2023-06-10T04:55:24;3.35;;;1.20;;
23743;SDS011;12052;53.478;10.182;2023-06-10T04:57:50;3.33;;;1.10;;
23743;SDS011;12052;53.478;10.182;2023-06-10T05:00:16;3.72;;;1.10;;
23743;SDS011;12052;53.478;10.182;2023-06-10T05:02:42;1.38;;;0.95;;
23743;SDS011;12052;53.478;10.182;2023-06-10T05:05:07;1.77;;;0.95;;
23743;SDS011;12052;53.478;10.182;2023-06-10T05:07:33;2.95;;;1.17;;
23743;SDS011;12052;53.478;10.182;2023-06-10T05:09:59;2.17;;;1.02;;
23743;SDS011;12052;53.478;10.182;2023-06-10T05:12:25;2.72;;;1.33;;
23743;SDS011;12052;53.478;10.182;2023-06-10T05:14:51;3.28;;;0.80;;
23743;SDS011;12052;53.478;10.182;2023-06-10T05:17:16;2.92;;;1.50;;
23743;SDS011;12052;53.478;10.182;2023-06-10T05:19:42;3.70;;;1.00;;
23743;SDS011;12052;53.478;10.182;2023-06-10T05:22:08;0.95;;;0.85;;
23743;SDS011;12052;53.478;10.182;2023-06-10T05:24:34;6.38;;;1.08;;
23743;SDS011;12052;53.478;10.182;2023-06-10T05:26:59;2.10;;;1.27;;
23743;SDS011;12052;53.478;10.182;2023-06-10T05:29:25;2.58;;;1.02;;
23743;SDS011;12052;53.478;10.182;2023-06-10T05:31:50;5.30;;;1.20;;
23743;SDS011;12052;53.478;10.182;2023-06-10T05:34:16;2.55;;;1.20;;
23743;SDS011;12052;53.478;10.182;2023-06-10T05:36:43;4.20;;;1.27;;
23743;SDS011;12052;53.478;10.182;2023-06-10T05:39:09;4.30;;;0.95;;
23743;SDS011;12052;53.478;10.182;2023-06-10T05:41:35;2.60;;;1.13;;
23743;SDS011;12052;53.478;10.182;2023-06-10T05:44:01;2.78;;;0.90;;
23743;SDS011;12052;53.478;10.182;2023-06-10T05:46:26;5.88;;;1.30;;
23743;SDS011;12052;53.478;10.182;2023-06-10T05:48:52;1.48;;;1.02;;
23743;SDS011;12052;53.478;10.182;2023-06-10T05:51:17;5.40;;;1.02;;
23743;SDS011;12052;53.478;10.182;2023-06-10T05:53:43;3.10;;;1.10;;
23743;SDS011;12052;53.478;10.182;2023-06-10T05:56:11;3.42;;;0.90;;
23743;SDS011;12052;53.478;10.182;2023-06-10T05:58:37;4.25;;;1.35;;
23743;SDS011;12052;53.478;10.182;2023-06-10T06:01:03;4.43;;;1.13;;
23743;SDS011;12052;53.478;10.182;2023-06-10T06:03:28;1.67;;;0.90;;
23743;SDS011;12052;53.478;10.182;2023-06-10T06:05:54;3.15;;;1.13;;
23743;SDS011;12052;53.478;10.182;2023-06-10T06:08:19;2.05;;;0.90;;
23743;SDS011;12052;53.478;10.182;2023-06-10T06:10:45;1.15;;;0.80;;
23743;SDS011;12052;53.478;10.182;2023-06-10T06:13:12;3.50;;;1.38;;
23743;SDS011;12052;53.478;10.182;2023-06-10T06:15:38;1.45;;;1.02;;
23743;SDS011;12052;53.478;10.182;2023-06-10T06:18:03;3.53;;;1.25;;
23743;SDS011;12052;53.478;10.182;2023-06-10T06:20:29;1.38;;;0.70;;
23743;SDS011;12052;53.478;10.182;2023-06-10T06:22:55;1.83;;;0.93;;
23743;SDS011;12052;53.478;10.182;2023-06-10T06:25:20;1.08;;;0.90;;
23743;SDS011;12052;53.478;10.182;2023-06-10T06:27:46;1.85;;;1.00;;
23743;SDS011;12052;53.478;10.182;2023-06-10T06:30:11;3.15;;;0.82;;
23743;SDS011;12052;53.478;10.182;2023-06-10T06:32:37;5.70;;;1.42;;
23743;SDS011;12052;53.478;10.182;2023-06-10T06:35:03;3.47;;;1.10;;
23743;SDS011;12052;53.478;10.182;2023-06-10T06:37:30;3.75;;;1.00;;
23743;SDS011;12052;53.478;10.182;2023-06-10T06:39:57;2.70;;;1.02;;
23743;SDS011;12052;53.478;10.182;2023-06-10T06:42:23;3.35;;;0.93;;
23743;SDS011;12052;53.478;10.182;2023-06-10T06:44:49;7.47;;;1.05;;
23743;SDS011;12052;53.478;10.182;2023-06-10T06:47:14;4.82;;;1.00;;
23743;SDS011;12052;53.478;10.182;2023-06-10T06:49:42;3.38;;;1.50;;
23743;SDS011;12052;53.478;10.182;2023-06-10T06:52:08;5.65;;;1.33;;
23743;SDS011;12052;53.478;10.182;2023-06-10T06:54:34;1.75;;;0.95;;
23743;SDS011;12052;53.478;10.182;2023-06-10T06:56:59;4.05;;;1.10;;
23743;SDS011;12052;53.478;10.182;2023-06-10T06:59:25;4.82;;;1.10;;
23743;SDS011;12052;53.478;10.182;2023-06-10T07:01:50;3.70;;;1.38;;
23743;SDS011;12052;53.478;10.182;2023-06-10T07:04:16;1.92;;;0.90;;
23743;SDS011;12052;53.478;10.182;2023-06-10T07:06:42;4.63;;;1.35;;
23743;SDS011;12052;53.478;10.182;2023-06-10T07:09:07;4.13;;;1.42;;
23743;SDS011;12052;53.478;10.182;2023-06-10T07:11:36;2.92;;;1.15;;
23743;SDS011;12052;53.478;10.182;2023-06-10T07:14:01;2.58;;;1.00;;
23743;SDS011;12052;53.478;10.182;2023-06-10T07:16:27;3.63;;;1.50;;
23743;SDS011;12052;53.478;10.182;2023-06-10T07:18:53;4.03;;;1.08;;
23743;SDS011;12052;53.478;10.182;2023-06-10T07:21:18;4.75;;;1.52;;
23743;SDS011;12052;53.478;10.182;2023-06-10T07:23:46;10.23;;;1.30;;
23743;SDS011;12052;53.478;10.182;2023-06-10T07:26:17;4.43;;;0.90;;
23743;SDS011;12052;53.478;10.182;2023-06-10T07:28:43;4.45;;;1.33;;
23743;SDS011;12052;53.478;10.182;2023-06-10T07:31:08;1.92;;;1.20;;
23743;SDS011;12052;53.478;10.182;2023-06-10T07:33:34;5.00;;;1.20;;
23743;SDS011;12052;53.478;10.182;2023-06-10T07:36:00;2.13;;;0.93;;
23743;SDS011;12052;53.478;10.182;2023-06-10T07:38:26;2.22;;;1.23;;
23743;SDS011;12052;53.478;10.182;2023-06-10T07:40:51;2.65;;;1.05;;
23743;SDS011;12052;53.478;10.182;2023-06-10T07:43:17;3.97;;;1.20;;
23743;SDS011;12052;53.478;10.182;2023-06-10T07:45:43;3.67;;;1.33;;
23743;SDS011;12052;53.478;10.182;2023-06-10T07:48:09;1.88;;;0.95;;
23743;SDS011;12052;53.478;10.182;2023-06-10T07:50:35;3.35;;;1.33;;
23743;SDS011;12052;53.478;10.182;2023-06-10T07:53:00;2.90;;;1.50;;
23743;SDS011;12052;53.478;10.182;2023-06-10T07:55:26;4.07;;;1.23;;
23743;SDS011;12052;53.478;10.182;2023-06-10T07:57:52;1.85;;;1.10;;
23743;SDS011;12052;53.478;10.182;2023-06-10T08:00:19;3.80;;;1.25;;
23743;SDS011;12052;53.478;10.182;2023-06-10T08:02:45;1.67;;;1.15;;
23743;SDS011;12052;53.478;10.182;2023-06-10T08:05:11;1.50;;;1.08;;
23743;SDS011;12052;53.478;10.182;2023-06-10T08:07:36;3.28;;;1.20;;
23743;SDS011;12052;53.478;10.182;2023-06-10T08:10:02;3.65;;;1.45;;
23743;SDS011;12052;53.478;10.182;2023-06-10T08:12:29;3.10;;;1.33;;
23743;SDS011;12052;53.478;10.182;2023-06-10T08:14:55;5.80;;;1.30;;
23743;SDS011;12052;53.478;10.182;2023-06-10T08:17:21;5.55;;;1.40;;
23743;SDS011;12052;53.478;10.182;2023-06-10T08:19:47;1.73;;;1.10;;
23743;SDS011;12052;53.478;10.182;2023-06-10T08:22:13;4.38;;;1.50;;
23743;SDS011;12052;53.478;10.182;2023-06-10T08:24:39;2.42;;;1.30;;
23743;SDS011;12052;53.478;10.182;2023-06-10T08:27:05;4.30;;;1.30;;
23743;SDS011;12052;53.478;10.182;2023-06-10T08:29:31;3.65;;;1.38;;
23743;SDS011;12052;53.478;10.182;2023-06-10T08:31:57;2.80;;;1.42;;
23743;SDS011;12052;53.478;10.182;2023-06-10T08:34:23;2.95;;;1.00;;
23743;SDS011;12052;53.478;10.182;2023-06-10T08:36:48;3.08;;;1.63;;
23743;SDS011;12052;53.478;10.182;2023-06-10T08:39:18;5.03;;;1.60;;
23743;SDS011;12052;53.478;10.182;2023-06-10T08:41:44;4.93;;;1.50;;
23743;SDS011;12052;53.478;10.182;2023-06-10T08:44:48;6.20;;;1.48;;
23743;SDS011;12052;53.478;10.182;2023-06-10T08:47:18;3.55;;;1.13;;
23743;SDS011;12052;53.478;10.182;2023-06-10T08:49:47;4.43;;;1.50;;
23743;SDS011;12052;53.478;10.182;2023-06-10T08:52:14;1.92;;;1.15;;
23743;SDS011;12052;53.478;10.182;2023-06-10T08:54:42;2.55;;;1.33;;
23743;SDS011;12052;53.478;10.182;2023-06-10T08:57:11;4.47;;;1.35;;
23743;SDS011;12052;53.478;10.182;2023-06-10T08:59:37;3.78;;;1.52;;
23743;SDS011;12052;53.478;10.182;2023-06-10T09:02:04;5.45;;;1.25;;
23743;SDS011;12052;53.478;10.182;2023-06-10T09:04:32;3.70;;;1.40;;
23743;SDS011;12052;53.478;10.182;2023-06-10T09:06:58;3.75;;;1.38;;
23743;SDS011;12052;53.478;10.182;2023-06-10T09:09:25;3.45;;;1.50;;
23743;SDS011;12052;53.478;10.182;2023-06-10T09:11:55;4.05;;;1.48;;
23743;SDS011;12052;53.478;10.182;2023-06-10T09:14:21;4.45;;;1.60;;
23743;SDS011;12052;53.478;10.182;2023-06-10T09:16:46;2.67;;;1.73;;
23743;SDS011;12052;53.478;10.182;2023-06-10T09:19:13;1.98;;;1.20;;
23743;SDS011;12052;53.478;10.182;2023-06-10T09:21:40;3.85;;;1.73;;
23743;SDS011;12052;53.478;10.182;2023-06-10T09:24:06;4.78;;;1.70;;
23743;SDS011;12052;53.478;10.182;2023-06-10T09:26:31;6.28;;;1.70;;
23743;SDS011;12052;53.478;10.182;2023-06-10T09:29:02;3.17;;;1.55;;
23743;SDS011;12052;53.478;10.182;2023-06-10T09:31:32;4.70;;;1.77;;
23743;SDS011;12052;53.478;10.182;2023-06-10T09:34:11;5.93;;;1.70;;
23743;SDS011;12052;53.478;10.182;2023-06-10T09:36:38;4.65;;;1.70;;
23743;SDS011;12052;53.478;10.182;2023-06-10T09:39:04;3.15;;;1.60;;
23743;SDS011;12052;53.478;10.182;2023-06-10T09:41:35;4.93;;;1.58;;
23743;SDS011;12052;53.478;10.182;2023-06-10T09:44:07;4.05;;;1.73;;
23743;SDS011;12052;53.478;10.182;2023-06-10T09:46:38;2.42;;;1.65;;
23743;SDS011;12052;53.478;10.182;2023-06-10T09:49:04;2.35;;;1.65;;
23743;SDS011;12052;53.478;10.182;2023-06-10T09:51:29;5.30;;;1.80;;
23743;SDS011;12052;53.478;10.182;2023-06-10T09:53:55;3.47;;;1.75;;
23743;SDS011;12052;53.478;10.182;2023-06-10T09:56:20;4.82;;;1.52;;
23743;SDS011;12052;53.478;10.182;2023-06-10T09:58:49;4.03;;;1.75;;
23743;SDS011;12052;53.478;10.182;2023-06-10T10:01:18;2.95;;;1.60;;
23743;SDS011;12052;53.478;10.182;2023-06-10T10:03:51;1.95;;;1.67;;
23743;SDS011;12052;53.478;10.182;2023-06-10T10:06:18;6.13;;;2.23;;
23743;SDS011;12052;53.478;10.182;2023-06-10T10:08:46;7.15;;;1.85;;
23743;SDS011;12052;53.478;10.182;2023-06-10T10:11:13;2.92;;;1.80;;
23743;SDS011;12052;53.478;10.182;2023-06-10T10:13:41;4.00;;;1.73;;
23743;SDS011;12052;53.478;10.182;2023-06-10T10:16:09;3.05;;;1.75;;
23743;SDS011;12052;53.478;10.182;2023-06-10T10:18:41;3.88;;;1.80;;
23743;SDS011;12052;53.478;10.182;2023-06-10T10:21:13;3.80;;;1.70;;
23743;SDS011;12052;53.478;10.182;2023-06-10T10:26:29;5.25;;;1.75;;
23743;SDS011;12052;53.478;10.182;2023-06-10T10:31:55;2.83;;;1.83;;
23743;SDS011;12052;53.478;10.182;2023-06-10T10:34:30;4.80;;;1.70;;
23743;SDS011;12052;53.478;10.182;2023-06-10T10:37:07;3.23;;;1.90;;
23743;SDS011;12052;53.478;10.182;2023-06-10T10:39:33;4.78;;;2.33;;
23743;SDS011;12052;53.478;10.182;2023-06-10T10:42:00;2.15;;;1.83;;
23743;SDS011;12052;53.478;10.182;2023-06-10T10:44:28;3.92;;;1.90;;
23743;SDS011;12052;53.478;10.182;2023-06-10T10:46:54;3.67;;;1.88;;
23743;SDS011;12052;53.478;10.182;2023-06-10T10:49:22;3.05;;;1.92;;
23743;SDS011;12052;53.478;10.182;2023-06-10T10:52:00;3.80;;;2.08;;
23743;SDS011;12052;53.478;10.182;2023-06-10T10:57:09;5.60;;;2.30;;
23743;SDS011;12052;53.478;10.182;2023-06-10T10:59:45;6.07;;;2.17;;
23743;SDS011;12052;53.478;10.182;2023-06-10T11:02:31;2.28;;;1.90;;
23743;SDS011;12052;53.478;10.182;2023-06-10T11:04:57;3.47;;;2.00;;
23743;SDS011;12052;53.478;10.182;2023-06-10T11:07:26;3.30;;;2.00;;
23743;SDS011;12052;53.478;10.182;2023-06-10T11:12:40;4.22;;;1.92;;
23743;SDS011;12052;53.478;10.182;2023-06-10T11:15:07;3.33;;;2.30;;
23743;SDS011;12052;53.478;10.182;2023-06-10T11:17:33;2.90;;;2.20;;
23743;SDS011;12052;53.478;10.182;2023-06-10T11:19:59;3.20;;;1.98;;
23743;SDS011;12052;53.478;10.182;2023-06-10T11:22:25;4.40;;;2.30;;
23743;SDS011;12052;53.478;10.182;2023-06-10T11:24:50;3.75;;;2.53;;
23743;SDS011;12052;53.478;10.182;2023-06-10T11:27:17;3.63;;;2.50;;
23743;SDS011;12052;53.478;10.182;2023-06-10T11:29:57;8.45;;;3.17;;
23743;SDS011;12052;53.478;10.182;2023-06-10T11:32:33;4.43;;;2.50;;
23743;SDS011;12052;53.478;10.182;2023-06-10T11:35:00;4.00;;;2.40;;
23743;SDS011;12052;53.478;10.182;2023-06-10T11:37:28;3.83;;;2.28;;
23743;SDS011;12052;53.478;10.182;2023-06-10T11:39:54;9.93;;;3.97;;
23743;SDS011;12052;53.478;10.182;2023-06-10T11:42:21;3.90;;;2.40;;
23743;SDS011;12052;53.478;10.182;2023-06-10T11:44:51;2.95;;;2.00;;
23743;SDS011;12052;53.478;10.182;2023-06-10T11:47:18;5.28;;;3.03;;
23743;SDS011;12052;53.478;10.182;2023-06-10T11:49:45;6.35;;;2.95;;
23743;SDS011;12052;53.478;10.182;2023-06-10T11:52:11;3.20;;;2.35;;
23743;SDS011;12052;53.478;10.182;2023-06-10T11:54:37;6.93;;;3.03;;
23743;SDS011;12052;53.478;10.182;2023-06-10T11:57:03;3.92;;;1.98;;
23743;SDS011;12052;53.478;10.182;2023-06-10T11:59:30;4.00;;;2.10;;
23743;SDS011;12052;53.478;10.182;2023-06-10T12:01:56;3.15;;;2.17;;
23743;SDS011;12052;53.478;10.182;2023-06-10T12:04:22;5.25;;;2.70;;
23743;SDS011;12052;53.478;10.182;2023-06-10T12:06:48;6.60;;;2.50;;
23743;SDS011;12052;53.478;10.182;2023-06-10T12:11:54;4.18;;;2.45;;
23743;SDS011;12052;53.478;10.182;2023-06-10T12:20:03;3.85;;;2.15;;
23743;SDS011;12052;53.478;10.182;2023-06-10T12:22:43;4.07;;;2.05;;
23743;SDS011;12052;53.478;10.182;2023-06-10T12:25:10;3.60;;;2.38;;
23743;SDS011;12052;53.478;10.182;2023-06-10T12:27:37;2.58;;;2.10;;
23743;SDS011;12052;53.478;10.182;2023-06-10T12:30:04;3.33;;;2.40;;
23743;SDS011;12052;53.478;10.182;2023-06-10T12:32:43;4.72;;;2.33;;
23743;SDS011;12052;53.478;10.182;2023-06-10T12:35:10;3.65;;;2.70;;
23743;SDS011;12052;53.478;10.182;2023-06-10T12:37:38;4.10;;;2.33;;
23743;SDS011;12052;53.478;10.182;2023-06-10T12:40:05;2.85;;;2.38;;
23743;SDS011;12052;53.478;10.182;2023-06-10T12:42:31;4.55;;;2.70;;
23743;SDS011;12052;53.478;10.182;2023-06-10T12:45:00;2.80;;;2.20;;
23743;SDS011;12052;53.478;10.182;2023-06-10T12:47:36;5.68;;;2.42;;
23743;SDS011;12052;53.478;10.182;2023-06-10T12:50:06;3.17;;;2.22;;
23743;SDS011;12052;53.478;10.182;2023-06-10T12:52:32;4.15;;;2.83;;
23743;SDS011;12052;53.478;10.182;2023-06-10T12:54:58;3.05;;;2.38;;
23743;SDS011;12052;53.478;10.182;2023-06-10T12:57:25;4.38;;;2.30;;
23743;SDS011;12052;53.478;10.182;2023-06-10T12:59:51;3.55;;;2.35;;
23743;SDS011;12052;53.478;10.182;2023-06-10T13:02:22;5.13;;;2.50;;
23743;SDS011;12052;53.478;10.182;2023-06-10T13:04:49;5.43;;;2.30;;
23743;SDS011;12052;53.478;10.182;2023-06-10T13:07:16;5.68;;;2.83;;
23743;SDS011;12052;53.478;10.182;2023-06-10T13:09:42;3.65;;;2.55;;
23743;SDS011;12052;53.478;10.182;2023-06-10T13:12:08;5.88;;;2.38;;
23743;SDS011;12052;53.478;10.182;2023-06-10T13:14:34;5.20;;;2.63;;
23743;SDS011;12052;53.478;10.182;2023-06-10T13:16:59;4.43;;;2.63;;
23743;SDS011;12052;53.478;10.182;2023-06-10T13:19:25;3.55;;;2.47;;
23743;SDS011;12052;53.478;10.182;2023-06-10T13:21:51;6.57;;;2.40;;
23743;SDS011;12052;53.478;10.182;2023-06-10T13:24:17;4.78;;;2.60;;
23743;SDS011;12052;53.478;10.182;2023-06-10T13:26:42;4.47;;;2.75;;
23743;SDS011;12052;53.478;10.182;2023-06-10T13:29:08;3.40;;;2.17;;
23743;SDS011;12052;53.478;10.182;2023-06-10T13:31:39;2.40;;;2.20;;
23743;SDS011;12052;53.478;10.182;2023-06-10T13:34:05;3.35;;;2.30;;
23743;SDS011;12052;53.478;10.182;2023-06-10T13:36:31;3.08;;;2.25;;
23743;SDS011;12052;53.478;10.182;2023-06-10T13:38:57;4.82;;;2.90;;
23743;SDS011;12052;53.478;10.182;2023-06-10T13:41:22;3.97;;;2.65;;
23743;SDS011;12052;53.478;10.182;2023-06-10T13:43:48;5.38;;;2.60;;
23743;SDS011;12052;53.478;10.182;2023-06-10T13:46:14;4.97;;;2.50;;
23743;SDS011;12052;53.478;10.182;2023-06-10T13:48:40;3.53;;;2.25;;
23743;SDS011;12052;53.478;10.182;2023-06-10T13:51:07;2.97;;;2.40;;
23743;SDS011;12052;53.478;10.182;2023-06-10T13:53:35;3.35;;;2.10;;
23743;SDS011;12052;53.478;10.182;2023-06-10T13:56:03;2.88;;;2.30;;
23743;SDS011;12052;53.478;10.182;2023-06-10T13:58:30;3.83;;;2.08;;
23743;SDS011;12052;53.478;10.182;2023-06-10T14:00:56;3.30;;;2.22;;
23743;SDS011;12052;53.478;10.182;2023-06-10T14:03:23;4.75;;;2.22;;
23743;SDS011;12052;53.478;10.182;2023-06-10T14:05:51;4.47;;;2.30;;
23743;SDS011;12052;53.478;10.182;2023-06-10T14:08:16;4.88;;;2.28;;
23743;SDS011;12052;53.478;10.182;2023-06-10T14:10:42;3.17;;;1.90;;
23743;SDS011;12052;53.478;10.182;2023-06-10T14:13:09;2.72;;;1.92;;
23743;SDS011;12052;53.478;10.182;2023-06-10T14:15:56;3.45;;;1.95;;
23743;SDS011;12052;53.478;10.182;2023-06-10T14:18:23;3.53;;;1.67;;
23743;SDS011;12052;53.478;10.182;2023-06-10T14:22:01;3.67;;;1.85;;
23743;SDS011;12052;53.478;10.182;2023-06-10T14:24:36;6.68;;;2.08;;
23743;SDS011;12052;53.478;10.182;2023-06-10T14:27:38;4.82;;;2.15;;
23743;SDS011;12052;53.478;10.182;2023-06-10T14:30:09;3.60;;;1.60;;
23743;SDS011;12052;53.478;10.182;2023-06-10T14:32:36;4.40;;;1.88;;
23743;SDS011;12052;53.478;10.182;2023-06-10T14:35:05;3.67;;;1.73;;
23743;SDS011;12052;53.478;10.182;2023-06-10T14:37:30;4.70;;;1.60;;
23743;SDS011;12052;53.478;10.182;2023-06-10T14:39:56;6.45;;;1.88;;
23743;SDS011;12052;53.478;10.182;2023-06-10T14:42:22;4.55;;;1.90;;
23743;SDS011;12052;53.478;10.182;2023-06-10T14:44:47;3.67;;;1.98;;
23743;SDS011;12052;53.478;10.182;2023-06-10T14:47:14;2.00;;;1.55;;
23743;SDS011;12052;53.478;10.182;2023-06-10T14:49:41;5.70;;;2.05;;
23743;SDS011;12052;53.478;10.182;2023-06-10T14:52:09;3.45;;;1.70;;
23743;SDS011;12052;53.478;10.182;2023-06-10T14:54:35;2.35;;;1.50;;
23743;SDS011;12052;53.478;10.182;2023-06-10T14:57:03;3.35;;;1.70;;